Time;durP1;ratioP1;P1;durP2;ratioP2;P2;SDS_P1;SDS_P2;PMS_P1;PMS_P2;Temp;Humidity;BMP_temperature;BMP_pressure;BME280_temperature;BME280_humidity;BME280_pressure;Samples;Min_cycle;Max_cycle;Signal;HPM_P1;HPM_P2
2023/08/20 00:00:14;;;;;;;15.75;10.58;;;;;;;22.81;100.00;100608.17;1474237;88;21367;-79
2023/08/20 00:02:44;;;;;;;18.23;11.20;;;;;;;22.81;100.00;100615.74;1469851;88;21375;-79
2023/08/20 00:05:12;;;;;;;11.70;10.13;;;;;;;22.82;100.00;100618.77;1462981;88;21614;-80
2023/08/20 00:07:39;;;;;;;12.60;10.95;;;;;;;22.81;100.00;100619.79;1470837;88;21611;-80
2023/08/20 00:10:07;;;;;;;15.10;11.08;;;;;;;22.80;100.00;100610.59;1473136;88;22956;-80
2023/08/20 00:12:34;;;;;;;17.62;10.90;;;;;;;22.75;100.00;100605.84;1466792;88;21500;-80
2023/08/20 00:15:06;;;;;;;11.30;10.20;;;;;;;22.71;100.00;100604.66;1470397;88;21456;-78
2023/08/20 00:17:38;;;;;;;14.93;11.05;;;;;;;22.68;100.00;100601.06;1468299;88;21375;-81
2023/08/20 00:20:10;;;;;;;13.65;9.53;;;;;;;22.62;100.00;100606.00;1470321;88;22209;-80
2023/08/20 00:22:37;;;;;;;13.58;8.75;;;;;;;22.58;100.00;100607.47;1471059;88;22515;-80
2023/08/20 00:25:05;;;;;;;16.65;8.63;;;;;;;22.56;100.00;100605.52;1469716;88;21596;-80
2023/08/20 00:27:32;;;;;;;14.28;10.13;;;;;;;22.52;100.00;100605.14;1470029;88;22380;-79
2023/08/20 00:29:59;;;;;;;14.50;10.50;;;;;;;22.49;100.00;100603.70;1466331;88;21367;-80
2023/08/20 00:32:25;;;;;;;14.95;9.40;;;;;;;22.50;100.00;100602.69;1464370;88;21447;-80
2023/08/20 00:34:51;;;;;;;12.85;9.00;;;;;;;22.50;100.00;100602.69;1447553;88;21406;-79
2023/08/20 00:37:17;;;;;;;11.50;10.30;;;;;;;22.50;100.00;100602.69;1471413;88;22286;-81
2023/08/20 00:39:44;;;;;;;17.75;10.35;;;;;;;22.50;100.00;100599.98;1469753;89;21538;-80
2023/08/20 00:42:10;;;;;;;13.48;10.70;;;;;;;22.49;100.00;100592.92;1467008;88;21330;-81
2023/08/20 00:44:36;;;;;;;11.43;10.18;;;;;;;22.47;100.00;100595.03;1464756;88;21425;-80
2023/08/20 00:47:05;;;;;;;14.35;10.53;;;;;;;22.47;100.00;100599.08;1471685;88;21477;-81
2023/08/20 00:49:32;;;;;;;18.02;10.28;;;;;;;22.46;100.00;100612.24;1480772;88;21620;-81
2023/08/20 00:52:00;;;;;;;11.22;9.53;;;;;;;22.45;100.00;100605.21;1470460;88;21481;-81
2023/08/20 00:54:28;;;;;;;15.48;11.60;;;;;;;22.42;100.00;100611.58;1468866;88;22235;-81
2023/08/20 00:56:54;;;;;;;14.93;10.08;;;;;;;22.35;100.00;100603.52;1453509;89;21515;-80
2023/08/20 00:59:21;;;;;;;16.15;11.33;;;;;;;22.30;100.00;100600.16;1451837;90;21538;-81
2023/08/20 01:01:48;;;;;;;29.87;12.75;;;;;;;22.24;100.00;100600.20;1461530;88;22433;-80
2023/08/20 01:04:14;;;;;;;22.90;11.35;;;;;;;22.16;100.00;100607.20;1475644;89;21418;-80
2023/08/20 01:06:45;;;;;;;15.95;10.03;;;;;;;22.12;100.00;100606.80;1462844;88;21509;-81
2023/08/20 01:09:54;;;;;;;14.73;10.40;;;;;;;22.12;100.00;100604.62;1462843;88;21477;-80
2023/08/20 01:12:22;;;;;;;12.53;10.28;;;;;;;22.12;100.00;100602.75;1443084;88;21646;-80
2023/08/20 01:14:49;;;;;;;12.13;10.60;;;;;;;22.15;100.00;100605.53;1476704;88;21374;-80
2023/08/20 01:17:15;;;;;;;14.25;9.50;;;;;;;22.12;100.00;100605.45;1455121;88;21346;-79
2023/08/20 01:19:42;;;;;;;14.90;10.63;;;;;;;22.11;100.00;100601.11;1469508;88;21375;-80
2023/08/20 01:22:26;;;;;;;15.48;9.55;;;;;;;22.13;100.00;100606.30;1469230;88;22328;-79
2023/08/20 01:25:22;;;;;;;12.30;10.38;;;;;;;22.12;100.00;100609.48;1471517;88;21518;-79
2023/08/20 01:28:30;;;;;;;11.70;10.10;;;;;;;22.10;100.00;100608.91;1458666;89;21439;-81
2023/08/20 01:30:59;;;;;;;19.00;10.98;;;;;;;22.00;100.00;100601.29;1436273;90;21429;-80
2023/08/20 01:33:26;;;;;;;13.08;10.25;;;;;;;21.93;100.00;100607.27;1445190;90;22524;-81
2023/08/20 01:35:55;;;;;;;16.07;10.55;;;;;;;21.93;100.00;100603.22;1463571;89;21374;-81
2023/08/20 01:38:22;;;;;;;10.95;9.83;;;;;;;21.90;100.00;100602.31;1448807;90;22278;-80
2023/08/20 01:40:49;;;;;;;15.43;10.25;;;;;;;21.90;100.00;100605.53;1468820;88;21472;-81
2023/08/20 01:43:15;;;;;;;16.32;10.53;;;;;;;21.89;100.00;100606.03;1441810;89;22605;-80
2023/08/20 01:45:41;;;;;;;20.40;9.53;;;;;;;21.90;100.00;100596.92;1452920;90;21451;-81
2023/08/20 01:48:07;;;;;;;12.80;9.85;;;;;;;21.90;100.00;100601.48;1451571;89;21353;-80
2023/08/20 01:50:35;;;;;;;11.80;10.08;;;;;;;21.91;100.00;100603.13;1467646;88;21524;-80
2023/08/20 01:53:03;;;;;;;16.42;11.30;;;;;;;21.89;100.00;100599.30;1466657;89;22004;-80
2023/08/20 01:55:29;;;;;;;12.13;10.48;;;;;;;21.82;100.00;100589.92;1453662;90;21504;-80
2023/08/20 01:57:55;;;;;;;12.23;9.95;;;;;;;21.78;100.00;100589.21;1472951;88;22367;-80
2023/08/20 02:00:21;;;;;;;13.55;10.13;;;;;;;21.75;100.00;100593.69;1473525;89;21471;-81
2023/08/20 02:02:48;;;;;;;12.95;10.95;;;;;;;21.75;100.00;100590.99;1463853;88;21397;-81
2023/08/20 02:05:14;;;;;;;12.78;9.30;;;;;;;21.72;100.00;100583.34;1441958;88;21588;-80
2023/08/20 02:07:40;;;;;;;16.32;10.40;;;;;;;21.69;100.00;100589.17;1477301;88;21389;-81
2023/08/20 02:10:08;;;;;;;12.35;10.23;;;;;;;21.63;100.00;100598.94;1466626;88;21352;-81
2023/08/20 02:12:35;;;;;;;15.60;9.68;;;;;;;21.63;100.00;100600.29;1470864;88;21396;-80
2023/08/20 02:15:02;;;;;;;11.00;9.85;;;;;;;21.62;100.00;100601.34;1468606;88;21361;-80
2023/08/20 02:17:28;;;;;;;16.02;10.08;;;;;;;21.59;100.00;100606.63;1468191;88;21863;-80
2023/08/20 02:19:54;;;;;;;16.93;10.05;;;;;;;21.57;100.00;100606.02;1464214;89;21383;-81
2023/08/20 02:22:20;;;;;;;14.70;9.90;;;;;;;21.55;100.00;100606.77;1455908;90;22419;-80
2023/08/20 02:24:47;;;;;;;12.47;11.18;;;;;;;21.49;100.00;100599.56;1467852;88;21414;-80
2023/08/20 02:27:13;;;;;;;18.67;10.82;;;;;;;21.44;100.00;100606.10;1467602;89;21338;-81
2023/08/20 02:29:39;;;;;;;12.20;10.95;;;;;;;21.38;100.00;100599.70;1452956;88;22437;-80
2023/08/20 02:32:06;;;;;;;21.95;11.68;;;;;;;21.37;100.00;100605.30;1443171;88;21633;-80
2023/08/20 02:34:32;;;;;;;14.33;10.72;;;;;;;21.36;100.00;100603.63;1470059;88;21419;-80
2023/08/20 02:36:58;;;;;;;11.28;9.83;;;;;;;21.32;100.00;100599.69;1474188;88;22312;-80
2023/08/20 02:39:24;;;;;;;14.10;9.73;;;;;;;21.27;100.00;100592.27;1471303;88;21397;-80
2023/08/20 02:41:50;;;;;;;14.35;10.15;;;;;;;21.22;100.00;100592.61;1474572;88;21499;-79
2023/08/20 02:44:17;;;;;;;16.60;9.98;;;;;;;21.23;100.00;100598.28;1450927;88;21375;-79
2023/08/20 02:46:44;;;;;;;12.23;9.70;;;;;;;21.16;100.00;100603.17;1466899;88;22402;-80
2023/08/20 02:49:13;;;;;;;11.50;9.55;;;;;;;21.11;100.00;100598.95;1484565;88;21384;-80
2023/08/20 02:51:39;;;;;;;13.93;9.45;;;;;;;21.08;100.00;100598.03;1457689;89;21478;-80
2023/08/20 02:54:05;;;;;;;11.57;10.13;;;;;;;21.06;100.00;100600.62;1468307;88;21384;-80
2023/08/20 02:56:32;;;;;;;14.73;10.03;;;;;;;21.05;100.00;100603.84;1470274;88;22240;-79
2023/08/20 02:58:58;;;;;;;12.80;8.83;;;;;;;21.08;100.00;100601.24;1465467;89;21530;-79
2023/08/20 03:01:27;;;;;;;9.95;8.23;;;;;;;21.08;100.00;100600.72;1463917;88;21318;-79
2023/08/20 03:03:54;;;;;;;12.90;10.60;;;;;;;21.08;100.00;100600.72;1468606;88;21657;-79
2023/08/20 03:06:20;;;;;;;11.53;10.35;;;;;;;21.12;100.00;100616.77;1464855;89;22343;-80
2023/08/20 03:08:46;;;;;;;15.20;10.90;;;;;;;21.12;100.00;100616.77;1453825;88;22330;-80
2023/08/20 03:11:12;;;;;;;11.78;10.03;;;;;;;21.09;100.00;100614.99;1446855;88;21581;-80
2023/08/20 03:13:38;;;;;;;17.60;9.83;;;;;;;21.04;100.00;100614.83;1472322;88;21404;-80
2023/08/20 03:16:04;;;;;;;10.23;9.23;;;;;;;21.01;100.00;100616.07;1467953;88;21403;-79
2023/08/20 03:18:31;;;;;;;11.18;10.03;;;;;;;20.98;100.00;100617.02;1471043;88;21345;-80
2023/08/20 03:20:57;;;;;;;15.25;10.72;;;;;;;20.91;100.00;100612.46;1471653;88;21426;-80
2023/08/20 03:23:24;;;;;;;14.60;10.38;;;;;;;20.91;100.00;100612.46;1463635;88;22992;-80
2023/08/20 03:25:50;;;;;;;13.62;9.68;;;;;;;20.84;100.00;100602.25;1463786;88;21389;-81
2023/08/20 03:28:19;;;;;;;11.18;9.70;;;;;;;20.84;100.00;100602.25;1464449;88;21582;-80
2023/08/20 03:30:45;;;;;;;13.48;10.95;;;;;;;20.94;100.00;100620.63;1470609;88;21470;-81
2023/08/20 03:33:11;;;;;;;11.43;9.45;;;;;;;20.99;100.00;100617.31;1471263;88;21426;-79
2023/08/20 03:35:39;;;;;;;13.95;9.90;;;;;;;21.00;100.00;100614.40;1473086;88;21441;-80
2023/08/20 03:38:05;;;;;;;14.85;10.10;;;;;;;20.95;100.00;100609.67;1467113;88;21544;-79
2023/08/20 03:40:31;;;;;;;15.83;10.98;;;;;;;20.95;100.00;100609.67;1470249;88;21418;-80
2023/08/20 03:42:57;;;;;;;20.80;11.50;;;;;;;20.99;100.00;100610.06;1478606;88;21440;-80
2023/08/20 03:45:24;;;;;;;13.32;11.10;;;;;;;20.97;100.00;100616.17;1469615;88;22335;-80
2023/08/20 03:47:50;;;;;;;12.80;10.82;;;;;;;20.86;100.00;100599.33;1471719;88;22392;-80
2023/08/20 03:50:16;;;;;;;14.03;11.85;;;;;;;20.88;100.00;100613.41;1474623;88;21932;-80
2023/08/20 03:52:42;;;;;;;17.55;11.33;;;;;;;20.79;100.00;100608.77;1476837;88;21448;-81
2023/08/20 03:55:09;;;;;;;13.38;11.12;;;;;;;20.79;100.00;100608.77;1477548;88;21425;-80
2023/08/20 03:57:35;;;;;;;17.87;12.82;;;;;;;20.80;100.00;100607.75;1471702;88;21581;-81
2023/08/20 04:00:03;;;;;;;10.55;9.55;;;;;;;20.84;100.00;100609.50;1462507;88;21567;-81
2023/08/20 04:02:31;;;;;;;15.73;10.33;;;;;;;20.85;100.00;100612.48;1471701;88;21385;-80
2023/08/20 04:04:58;;;;;;;17.10;10.43;;;;;;;20.84;100.00;100608.16;1468197;88;21363;-79
2023/08/20 04:07:24;;;;;;;12.47;9.98;;;;;;;20.84;100.00;100610.84;1468659;88;22818;-80
2023/08/20 04:09:50;;;;;;;16.40;11.05;;;;;;;20.88;100.00;100617.44;1470494;88;21385;-81
2023/08/20 04:12:17;;;;;;;10.50;9.40;;;;;;;21.00;100.00;100602.81;1458246;89;21612;-82
2023/08/20 04:14:43;;;;;;;12.10;9.98;;;;;;;21.00;100.00;100602.81;1445441;88;21429;-80
2023/08/20 04:17:09;;;;;;;13.55;10.68;;;;;;;21.10;100.00;100607.25;1475554;88;21384;-80
2023/08/20 04:19:35;;;;;;;12.30;10.10;;;;;;;21.10;100.00;100607.25;1446630;89;22299;-79
2023/08/20 04:22:01;;;;;;;10.28;9.05;;;;;;;21.11;100.00;100611.05;1448407;90;21414;-81
2023/08/20 04:24:27;;;;;;;17.20;11.85;;;;;;;21.08;100.00;100610.66;1462964;89;21419;-80
2023/08/20 04:26:53;;;;;;;12.10;10.43;;;;;;;21.04;100.00;100600.84;1428417;90;21341;-80
2023/08/20 04:29:19;;;;;;;14.58;10.55;;;;;;;21.04;100.00;100599.50;1451465;88;22416;-79
2023/08/20 04:31:45;;;;;;;16.27;10.48;;;;;;;21.04;100.00;100599.50;1464592;89;21478;-80
2023/08/20 04:34:12;;;;;;;23.12;10.58;;;;;;;21.13;100.00;100613.02;1459596;88;21371;-79
2023/08/20 04:36:38;;;;;;;14.35;10.05;;;;;;;21.20;100.00;100612.98;1459670;89;21375;-77
2023/08/20 04:39:04;;;;;;;11.45;9.93;;;;;;;21.27;100.00;100615.16;1445105;90;21385;-79
2023/08/20 04:41:30;;;;;;;14.50;9.60;;;;;;;21.32;100.00;100620.73;1473985;88;21531;-79
2023/08/20 04:43:56;;;;;;;13.95;10.43;;;;;;;21.37;100.00;100624.14;1461167;88;21391;-79
2023/08/20 04:46:23;;;;;;;14.05;9.68;;;;;;;21.42;100.00;100629.72;1444836;90;21444;-79
2023/08/20 04:48:49;;;;;;;11.75;9.65;;;;;;;21.45;100.00;100627.94;1464081;88;21332;-79
2023/08/20 04:51:15;;;;;;;13.93;9.68;;;;;;;21.51;100.00;100629.77;1467902;89;22223;-78
2023/08/20 04:53:41;;;;;;;15.50;11.12;;;;;;;21.55;100.00;100635.55;1463827;88;21406;-79
2023/08/20 04:56:07;;;;;;;10.65;9.55;;;;;;;21.58;100.00;100631.92;1475748;88;21333;-79
2023/08/20 04:58:34;;;;;;;11.48;10.23;;;;;;;21.61;100.00;100630.67;1471170;89;21403;-79
2023/08/20 05:01:00;;;;;;;16.12;10.45;;;;;;;21.65;100.00;100639.14;1462124;88;21411;-80
2023/08/20 05:03:26;;;;;;;13.60;9.50;;;;;;;21.70;100.00;100644.19;1466613;88;21410;-80
2023/08/20 05:05:52;;;;;;;12.20;10.55;;;;;;;21.77;100.00;100641.45;1472070;88;22247;-80
2023/08/20 05:08:19;;;;;;;10.48;8.90;;;;;;;21.83;100.00;100641.40;1475928;88;21478;-79
2023/08/20 05:10:45;;;;;;;12.33;10.75;;;;;;;21.89;100.00;100641.05;1473704;88;21396;-79
2023/08/20 05:13:11;;;;;;;11.70;8.93;;;;;;;21.93;100.00;100643.64;1469113;88;21464;-79
2023/08/20 05:15:37;;;;;;;13.28;9.78;;;;;;;21.95;100.00;100644.25;1467850;88;21546;-79
2023/08/20 05:18:03;;;;;;;13.18;9.10;;;;;;;22.01;100.00;100651.47;1443989;88;21552;-79
2023/08/20 05:20:29;;;;;;;10.78;9.68;;;;;;;22.08;100.00;100652.76;1474546;88;21604;-80
2023/08/20 05:22:58;;;;;;;11.12;7.80;;;;;;;22.12;100.00;100653.96;1449121;88;22357;-80
2023/08/20 05:25:24;;;;;;;13.35;9.23;;;;;;;22.21;100.00;100661.29;1473959;88;21281;-80
2023/08/20 05:27:50;;;;;;;17.20;9.98;;;;;;;22.25;100.00;100655.26;1437894;89;21419;-80
2023/08/20 05:30:16;;;;;;;14.85;9.63;;;;;;;22.33;100.00;100660.06;1475570;88;21525;-78
2023/08/20 05:32:43;;;;;;;14.18;8.85;;;;;;;22.40;100.00;100656.80;1470392;89;21515;-81
2023/08/20 05:35:09;;;;;;;15.18;9.53;;;;;;;22.49;100.00;100652.25;1466607;88;21487;-81
2023/08/20 05:37:35;;;;;;;16.60;7.80;;;;;;;22.56;100.00;100656.27;1467777;88;21340;-80
2023/08/20 05:40:02;;;;;;;9.88;8.18;;;;;;;22.62;100.00;100662.64;1456099;89;22299;-81
2023/08/20 05:42:28;;;;;;;13.80;8.43;;;;;;;22.73;100.00;100664.62;1471770;88;21340;-81
2023/08/20 05:44:54;;;;;;;11.43;8.05;;;;;;;22.80;100.00;100668.06;1468164;88;22404;-78
2023/08/20 05:47:20;;;;;;;11.22;8.05;;;;;;;22.85;100.00;100674.16;1476739;88;22412;-78
2023/08/20 05:49:47;;;;;;;11.70;9.18;;;;;;;22.93;100.00;100674.70;1458236;90;21430;-78
2023/08/20 05:52:13;;;;;;;13.93;8.23;;;;;;;22.95;100.00;100680.70;1475030;88;21385;-79
2023/08/20 05:54:39;;;;;;;13.22;8.33;;;;;;;23.04;100.00;100685.81;1467910;89;22313;-80
2023/08/20 05:57:05;;;;;;;10.38;7.40;;;;;;;23.15;100.00;100681.84;1479813;88;21317;-79
2023/08/20 05:59:32;;;;;;;12.25;7.67;;;;;;;23.28;100.00;100683.59;1465625;89;21353;-78
2023/08/20 06:01:58;;;;;;;9.95;7.80;;;;;;;23.39;100.00;100674.73;1441236;88;21385;-80
2023/08/20 06:04:24;;;;;;;9.05;8.13;;;;;;;23.52;100.00;100681.02;1469963;88;21590;-79
2023/08/20 06:06:50;;;;;;;9.08;7.92;;;;;;;23.58;100.00;100680.11;1438760;89;21420;-78
2023/08/20 06:09:17;;;;;;;9.68;8.25;;;;;;;23.70;100.00;100681.52;1475134;88;21282;-78
2023/08/20 06:11:43;;;;;;;10.45;7.33;;;;;;;23.78;100.00;100683.41;1468459;88;21472;-82
2023/08/20 06:14:09;;;;;;;14.80;7.75;;;;;;;23.90;100.00;100682.09;1470442;89;21565;-81
2023/08/20 06:16:36;;;;;;;8.75;7.25;;;;;;;23.97;100.00;100686.08;1474597;88;21399;-82
2023/08/20 06:19:05;;;;;;;9.45;6.62;;;;;;;24.12;100.00;100685.66;1474465;88;21355;-81
2023/08/20 06:21:31;;;;;;;11.05;8.13;;;;;;;24.21;100.00;100689.67;1474311;89;21404;-82
2023/08/20 06:23:57;;;;;;;10.98;8.88;;;;;;;24.22;100.00;100690.77;1471925;88;21436;-82
2023/08/20 06:26:24;;;;;;;11.70;8.03;;;;;;;24.31;100.00;100691.26;1469278;88;21385;-82
2023/08/20 06:28:50;;;;;;;9.13;6.85;;;;;;;24.44;100.00;100697.03;1464051;89;21500;-81
2023/08/20 06:31:16;;;;;;;9.20;7.12;;;;;;;24.46;100.00;100695.75;1467046;88;21384;-82
2023/08/20 06:33:42;;;;;;;16.35;7.47;;;;;;;24.54;100.00;100693.21;1466469;88;22369;-82
2023/08/20 06:36:09;;;;;;;11.65;8.18;;;;;;;24.59;100.00;100690.64;1455346;89;21449;-81
2023/08/20 06:38:44;;;;;;;8.05;7.25;;;;;;;24.70;100.00;100686.30;1452861;88;21562;-84
2023/08/20 06:41:18;;;;;;;14.15;7.12;;;;;;;24.70;100.00;100694.42;1457357;88;21392;-85
2023/08/20 06:47:44;;;;;;;;;;;;;;;24.86;100.00;100697.78;1472521;88;21391;-85
2023/08/20 06:50:10;;;;;;;9.05;7.30;;;;;;;24.94;100.00;100686.58;1475077;88;20420;-86
2023/08/20 06:52:37;;;;;;;7.33;6.62;;;;;;;25.04;100.00;100689.24;1444527;89;21493;-86
2023/08/20 06:55:04;;;;;;;8.48;6.83;;;;;;;25.11;100.00;100698.87;1474495;88;21362;-86
2023/08/20 06:57:30;;;;;;;7.12;6.42;;;;;;;25.25;100.00;100698.66;1469198;88;22369;-87
2023/08/20 06:59:56;;;;;;;7.17;6.33;;;;;;;25.35;100.00;100686.16;1462871;89;22524;-86
2023/08/20 07:02:23;;;;;;;8.40;6.78;;;;;;;25.48;100.00;100690.47;1469155;88;21354;-86
2023/08/20 07:04:49;;;;;;;11.00;6.75;;;;;;;25.61;100.00;100692.92;1472800;88;21347;-86
2023/08/20 07:07:16;;;;;;;6.67;6.08;;;;;;;25.77;100.00;100693.21;1463367;89;22284;-86
2023/08/20 07:09:42;;;;;;;13.90;7.47;;;;;;;25.87;100.00;100696.16;1448953;88;22350;-86
2023/08/20 07:12:08;;;;;;;12.47;7.30;;;;;;;25.98;100.00;100698.00;1451260;89;21360;-85
2023/08/20 07:14:34;;;;;;;7.35;6.50;;;;;;;26.00;100.00;100698.55;1465687;88;21595;-88
2023/08/20 07:17:02;;;;;;;7.65;6.83;;;;;;;26.11;100.00;100704.45;1464502;88;21451;-86
2023/08/20 07:19:29;;;;;;;9.93;6.90;;;;;;;26.21;100.00;100707.05;1465040;88;22596;-85
2023/08/20 07:21:55;;;;;;;9.78;6.92;;;;;;;26.20;100.00;100706.78;1450220;90;21370;-86
2023/08/20 07:24:25;;;;;;;12.53;7.05;;;;;;;26.30;100.00;100709.68;1458040;88;21524;-86
2023/08/20 07:26:50;;;;;;;12.88;6.35;;;;;;;26.34;100.00;100712.18;1464542;88;21389;-86
2023/08/20 07:29:16;;;;;;;10.43;6.30;;;;;;;26.36;100.00;100711.41;1469734;88;21421;-86
2023/08/20 07:31:43;;;;;;;11.22;7.35;;;;;;;26.47;100.00;100711.02;1461607;89;21574;-86
2023/08/20 07:34:09;;;;;;;8.38;6.47;;;;;;;26.54;100.00;100709.84;1473439;88;22293;-86
2023/08/20 07:36:35;;;;;;;7.08;6.37;;;;;;;26.61;100.00;100712.38;1445082;89;21419;-86
2023/08/20 07:39:01;;;;;;;10.38;6.97;;;;;;;26.69;100.00;100712.50;1470631;88;21413;-85
2023/08/20 07:41:28;;;;;;;10.53;6.67;;;;;;;26.71;100.00;100711.19;1462109;88;22353;-85
2023/08/20 07:43:54;;;;;;;9.05;6.58;;;;;;;26.79;100.00;100708.61;1470642;89;21485;-85
2023/08/20 07:46:20;;;;;;;10.20;6.83;;;;;;;26.92;100.00;100701.45;1444761;88;22470;-86
2023/08/20 07:48:47;;;;;;;10.13;6.50;;;;;;;27.01;100.00;100706.73;1467010;88;21392;-83
2023/08/20 07:51:13;;;;;;;8.33;7.28;;;;;;;27.15;100.00;100709.11;1470054;89;21367;-86
2023/08/20 07:53:39;;;;;;;22.05;18.17;;;;;;;27.29;100.00;100710.42;1460211;88;21317;-86
2023/08/20 07:56:06;;;;;;;9.90;8.75;;;;;;;27.42;100.00;100714.13;1472062;88;21384;-84
2023/08/20 07:58:32;;;;;;;12.13;8.33;;;;;;;27.60;100.00;100709.45;1470847;89;22314;-84
2023/08/20 08:00:58;;;;;;;9.10;6.50;;;;;;;27.67;100.00;100710.88;1468740;88;21398;-84
2023/08/20 08:03:28;;;;;;;11.48;6.72;;;;;;;27.82;100.00;100711.65;1466916;88;21502;-84
2023/08/20 08:05:55;;;;;;;9.63;7.87;;;;;;;27.94;100.00;100711.50;1469648;89;21477;-86
2023/08/20 08:08:21;;;;;;;12.75;7.75;;;;;;;28.11;100.00;100711.40;1472113;88;22479;-85
2023/08/20 08:10:47;;;;;;;8.50;6.80;;;;;;;28.25;100.00;100708.52;1451715;90;21451;-83
2023/08/20 08:13:17;;;;;;;8.80;6.20;;;;;;;28.38;100.00;100713.27;1447246;90;21399;-81
2023/08/20 08:15:43;;;;;;;;;;;;;;;28.44;100.00;100710.35;1466250;89;21434;-84
2023/08/20 08:18:09;;;;;;;12.15;6.15;;;;;;;28.45;100.00;100709.80;1467159;89;20396;-83
2023/08/20 08:20:35;;;;;;;9.18;6.08;;;;;;;28.58;100.00;100712.10;1469760;88;21377;-83
2023/08/20 08:23:02;;;;;;;8.83;6.28;;;;;;;28.62;100.00;100711.84;1469979;89;21432;-84
2023/08/20 08:25:29;;;;;;;12.68;6.42;;;;;;;28.76;100.00;100713.59;1471498;88;22265;-82
2023/08/20 08:27:55;;;;;;;10.28;6.72;;;;;;;28.83;100.00;100716.08;1467124;88;21550;-83
2023/08/20 08:30:21;;;;;;;8.83;6.70;;;;;;;28.82;100.00;100709.00;1464405;89;21396;-83
2023/08/20 08:32:48;;;;;;;7.22;6.53;;;;;;;28.98;100.00;100708.02;1473043;88;21520;-84
2023/08/20 08:35:14;;;;;;;11.43;7.15;;;;;;;29.01;100.00;100708.31;1460813;89;22255;-81
2023/08/20 08:37:42;;;;;;;12.90;7.53;;;;;;;28.97;100.00;100711.81;1468195;88;22449;-84
2023/08/20 08:40:09;;;;;;;7.55;6.75;;;;;;;29.11;100.00;100705.39;1461464;89;21463;-87
2023/08/20 08:42:36;;;;;;;9.68;6.22;;;;;;;29.26;100.00;100706.00;1470073;88;21421;-84
2023/08/20 08:45:03;;;;;;;8.13;6.40;;;;;;;29.40;100.00;100709.89;1461764;89;21680;-84
2023/08/20 08:47:30;;;;;;;10.05;9.15;;;;;;;29.59;100.00;100711.61;1472299;88;22456;-84
2023/08/20 08:49:57;;;;;;;10.05;7.37;;;;;;;29.75;100.00;100706.52;1461511;89;21434;-83
2023/08/20 08:52:23;;;;;;;6.47;5.87;;;;;;;29.93;100.00;100703.83;1471446;88;21518;-84
2023/08/20 08:54:50;;;;;;;13.55;6.22;;;;;;;29.97;100.00;100702.19;1461413;89;21554;-81
2023/08/20 08:57:16;;;;;;;9.25;6.75;;;;;;;30.01;100.00;100698.36;1469226;88;21421;-83
2023/08/20 08:59:43;;;;;;;18.17;14.23;;;;;;;30.10;100.00;100704.40;1467429;88;21346;-84
2023/08/20 09:02:11;;;;;;;15.43;9.33;;;;;;;30.23;100.00;100706.34;1466123;89;22504;-84
2023/08/20 09:04:40;;;;;;;6.92;6.17;;;;;;;30.28;100.00;100711.27;1398969;88;21304;-85
2023/08/20 09:07:14;;;;;;;8.80;6.67;;;;;;;30.29;100.00;100701.97;1555228;88;21405;-84
2023/08/20 09:09:44;;;;;;;13.35;8.10;;;;;;;30.41;100.00;100709.89;1552178;88;22144;-82
2023/08/20 09:12:19;;;;;;;8.33;7.10;;;;;;;30.53;100.00;100706.36;1393739;88;21259;-83
2023/08/20 09:14:48;;;;;;;9.40;6.95;;;;;;;30.63;100.00;100715.08;1392185;88;22183;-84
2023/08/20 09:17:15;;;;;;;8.90;5.33;;;;;;;30.77;100.00;100713.98;1390124;89;21460;-84
2023/08/20 09:19:44;;;;;;;9.50;5.65;;;;;;;30.92;100.00;100719.44;1394317;88;21259;-84
2023/08/20 09:22:14;;;;;;;7.97;6.67;;;;;;;31.00;100.00;100720.24;1481125;89;21242;-82
2023/08/20 09:24:45;;;;;;;9.35;6.28;;;;;;;31.03;100.00;100719.69;1393905;88;22176;-83
2023/08/20 09:27:13;;;;;;;8.70;6.20;;;;;;;31.10;100.00;100717.20;1415843;88;21311;-84
2023/08/20 09:29:53;;;;;;;11.20;6.45;;;;;;;31.22;100.00;100716.38;1551316;88;21301;-84
2023/08/20 09:32:23;;;;;;;;;;;;;;;31.22;100.00;100718.55;1436950;88;22434;-83
2023/08/20 09:34:51;;;;;;;9.35;5.08;;;;;;;31.37;100.00;100717.70;1460607;89;20285;-84
2023/08/20 09:37:21;;;;;;;104.15;11.78;;;;;;;31.51;100.00;100712.45;1471140;88;21606;-84
2023/08/20 09:39:48;;;;;;;7.95;5.80;;;;;;;31.57;97.18;100711.88;1468156;88;21414;-82
2023/08/20 09:42:15;;;;;;;10.28;6.05;;;;;;;31.42;92.83;100715.52;1463857;89;21448;-83
2023/08/20 09:44:45;;;;;;;16.07;5.92;;;;;;;31.36;96.63;100716.08;1469201;88;21340;-84
2023/08/20 09:47:14;;;;;;;9.48;6.80;;;;;;;31.38;97.31;100719.33;1391831;88;21445;-84
2023/08/20 09:49:48;;;;;;;7.60;6.17;;;;;;;31.46;98.45;100709.19;1389862;89;21404;-84
2023/08/20 09:52:31;;;;;;;8.38;5.97;;;;;;;31.52;97.48;100713.27;1532703;88;21251;-83
2023/08/20 09:55:11;;;;;;;7.17;6.03;;;;;;;31.64;97.58;100714.56;1435630;88;21465;-84
2023/08/20 09:57:39;;;;;;;;;;;;;;;31.77;97.04;100711.78;1550743;88;21337;-85
2023/08/20 10:00:11;;;;;;;6.20;5.15;;;;;;;31.89;96.79;100712.24;1392964;88;20263;-82
2023/08/20 10:02:39;;;;;;;6.12;5.33;;;;;;;31.98;97.08;100704.84;1397845;88;21345;-84
2023/08/20 10:05:11;;;;;;;11.28;5.65;;;;;;;32.09;96.45;100694.09;1400132;88;21273;-84
2023/08/20 10:07:38;;;;;;;7.22;5.33;;;;;;;32.16;95.06;100697.30;1544487;89;21235;-85
2023/08/20 10:10:07;;;;;;;7.72;5.70;;;;;;;32.30;96.01;100702.39;1511726;88;21444;-84
2023/08/20 10:12:34;;;;;;;7.20;5.15;;;;;;;32.34;92.71;100695.78;1398127;88;22088;-84
2023/08/20 10:15:01;;;;;;;7.20;6.10;;;;;;;32.25;91.39;100697.51;1384463;89;21427;-83
2023/08/20 10:17:33;;;;;;;8.65;5.20;;;;;;;32.26;92.15;100701.34;1400641;88;21259;-85
2023/08/20 10:20:04;;;;;;;6.33;5.40;;;;;;;32.29;91.80;100699.95;1392779;88;22235;-84
2023/08/20 10:22:35;;;;;;;16.57;5.70;;;;;;;32.33;91.93;100696.34;1491815;89;21389;-84
2023/08/20 10:25:11;;;;;;;8.40;4.58;;;;;;;32.31;89.35;100702.67;1448248;88;21459;-84
2023/08/20 10:27:42;;;;;;;7.37;5.35;;;;;;;32.30;88.95;100694.18;1466585;89;21425;-84
2023/08/20 10:30:15;;;;;;;5.37;4.83;;;;;;;32.35;90.03;100695.52;1495352;88;21540;-84
2023/08/20 10:32:52;;;;;;;10.90;5.10;;;;;;;32.38;90.58;100696.05;1470597;88;22018;-84
2023/08/20 10:35:28;;;;;;;6.12;5.33;;;;;;;32.42;91.26;100693.80;1469213;89;21418;-82
2023/08/20 10:38:09;;;;;;;8.23;5.37;;;;;;;32.35;89.46;100694.70;1472021;88;22386;-84
2023/08/20 10:40:57;;;;;;;7.05;5.78;;;;;;;32.33;90.06;100693.60;1458020;89;21390;-84
2023/08/20 10:43:35;;;;;;;6.62;5.45;;;;;;;32.36;91.04;100691.66;1394213;88;21536;-84
2023/08/20 10:46:08;;;;;;;10.78;4.83;;;;;;;32.51;91.82;100687.18;1416807;89;21371;-84
2023/08/20 10:48:40;;;;;;;6.50;5.83;;;;;;;32.48;89.08;100687.76;1525305;90;21547;-84
2023/08/20 10:51:27;;;;;;;7.45;5.28;;;;;;;32.51;89.26;100685.28;1549041;88;22271;-84
2023/08/20 10:54:06;;;;;;;7.10;5.40;;;;;;;32.35;87.71;100681.81;1503108;89;22255;-82
2023/08/20 10:56:58;;;;;;;;;;;;;;;32.48;89.08;100680.91;1442941;88;21377;-83
2023/08/20 10:59:29;;;;;;;8.20;5.75;;;;;;;32.47;89.06;100676.55;1461062;89;20344;-83
2023/08/20 11:01:58;;;;;;;9.83;6.25;;;;;;;32.70;92.09;100677.14;1469854;88;21348;-85
2023/08/20 11:04:34;;;;;;;9.38;4.97;;;;;;;32.77;88.47;100675.41;1452013;88;21385;-84
2023/08/20 11:07:01;;;;;;;8.75;5.10;;;;;;;32.79;88.31;100669.09;1465895;88;21613;-85
2023/08/20 11:09:57;;;;;;;7.90;5.65;;;;;;;32.81;78.64;100669.08;1448429;90;21296;-83
2023/08/20 11:12:23;;;;;;;6.50;5.78;;;;;;;32.86;77.66;100671.48;1460846;88;21487;-83
2023/08/20 11:14:49;;;;;;;13.40;5.60;;;;;;;33.00;79.45;100664.23;1451625;89;21399;-83
2023/08/20 11:24:21;;;;;;;11.65;5.22;;;;;;;33.21;78.57;100657.41;1440700;90;22292;-83
2023/08/20 11:26:47;;;;;;;5.75;5.10;;;;;;;33.33;77.84;100663.02;1423901;91;21410;-83